createdAt,value
2016-10-31T00:00:09.680Z,70.62
2016-10-31T00:01:19.978Z,70.9
2016-10-31T00:02:29.639Z,70.9
2016-10-31T00:03:39.912Z,70.81
2016-10-31T00:04:49.894Z,70.81
2016-10-31T00:05:59.258Z,70.72
2016-10-31T00:07:09.250Z,70.43
2016-10-31T00:08:19.268Z,70.43
2016-10-31T00:09:29.599Z,70.43
2016-10-31T00:10:39.305Z,70.52
2016-10-31T00:11:48.967Z,70.62
2016-10-31T00:12:58.961Z,70.43
2016-10-31T00:14:08.925Z,70.58
2016-10-31T00:15:18.897Z,70.49
2016-10-31T00:16:28.868Z,70.68
2016-10-31T00:17:38.544Z,70.72
2016-10-31T00:18:48.536Z,70.68
2016-10-31T00:19:58.233Z,70.87
2016-10-31T00:21:07.971Z,70.49
2016-10-31T00:22:18.252Z,70.81
2016-10-31T00:23:28.213Z,70.72
2016-10-31T00:24:38.190Z,70.58
2016-10-31T00:25:48.503Z,70.77
2016-10-31T00:26:58.474Z,70.77
2016-10-31T00:28:08.455Z,70.68
2016-10-31T00:29:18.431Z,70.77
2016-10-31T00:30:28.412Z,70.87
2016-10-31T00:31:38.696Z,70.77
2016-10-31T00:32:48.672Z,70.62
2016-10-31T00:33:58.959Z,70.58
2016-10-31T00:35:09.240Z,70.77
2016-10-31T00:36:18.916Z,70.77
2016-10-31T00:37:29.209Z,70.68
2016-10-31T00:38:39.491Z,70.68
2016-10-31T00:39:49.791Z,70.87
2016-10-31T00:40:59.454Z,70.87
2016-10-31T00:42:09.420Z,70.58
2016-10-31T00:43:19.712Z,70.68
2016-10-31T00:44:29.696Z,70.77
2016-10-31T00:45:39.971Z,70.87
2016-10-31T00:46:50.265Z,70.49
2016-10-31T00:48:00.577Z,70.68
2016-10-31T00:49:10.904Z,70.68
2016-10-31T00:50:21.181Z,70.58
2016-10-31T00:51:31.157Z,70.68
2016-10-31T00:52:40.515Z,70.68
2016-10-31T00:53:50.808Z,70.68
2016-10-31T00:55:01.108Z,71.15
2016-10-31T00:56:10.824Z,71.25
2016-10-31T00:57:20.826Z,70.77
2016-10-31T00:58:31.116Z,71.25
2016-10-31T00:59:41.385Z,71.25
2016-10-31T01:00:51.355Z,71.34
2016-10-31T01:02:01.649Z,70.87
2016-10-31T01:03:11.935Z,71.15
2016-10-31T01:04:21.949Z,71.06
2016-10-31T01:05:32.273Z,70.77
2016-10-31T01:06:42.604Z,70.49
2016-10-31T01:07:52.611Z,71.25
2016-10-31T01:09:02.894Z,70.77
2016-10-31T01:10:12.865Z,70.68
2016-10-31T01:11:23.132Z,70.87
2016-10-31T01:12:33.107Z,70.68
2016-10-31T01:13:43.399Z,70.68
2016-10-31T01:14:53.676Z,70.77
2016-10-31T01:16:03.968Z,70.68
2016-10-31T01:17:14.260Z,70.77
2016-10-31T01:18:24.535Z,70.77
2016-10-31T01:19:34.514Z,70.77
2016-10-31T01:20:44.798Z,70.77
2016-10-31T01:21:55.082Z,70.49
2016-10-31T01:23:04.738Z,70.49
2016-10-31T01:24:14.706Z,71.06
2016-10-31T01:25:24.726Z,70.58
2016-10-31T01:26:35.058Z,70.77
2016-10-31T01:27:45.045Z,70.87
2016-10-31T01:28:54.711Z,70.77
2016-10-31T01:30:04.383Z,70.68
2016-10-31T01:31:14.054Z,70.68
2016-10-31T01:32:24.028Z,70.87
2016-10-31T01:33:33.999Z,70.87
2016-10-31T01:34:43.691Z,70.77
2016-10-31T01:35:53.642Z,70.87
2016-10-31T01:37:03.943Z,70.68
2016-10-31T01:38:13.984Z,70.68
2016-10-31T01:39:23.965Z,70.68
2016-10-31T01:40:34.251Z,70.87
2016-10-31T01:41:44.218Z,70.58
2016-10-31T01:42:54.500Z,70.77
2016-10-31T01:44:04.178Z,70.77
2016-10-31T01:45:14.445Z,70.77
2016-10-31T01:46:24.430Z,70.77
2016-10-31T01:47:34.730Z,70.77
2016-10-31T01:48:45.024Z,70.77
2016-10-31T01:49:54.990Z,70.77
2016-10-31T01:51:05.272Z,70.77
2016-10-31T01:52:15.263Z,70.58
2016-10-31T01:53:25.534Z,70.39
2016-10-31T01:54:35.825Z,70.49
2016-10-31T01:55:45.803Z,70.49
2016-10-31T01:56:56.094Z,70.3
2016-10-31T01:58:06.421Z,70.58
2016-10-31T01:59:16.411Z,70.77
2016-10-31T02:00:26.378Z,70.77
2016-10-31T02:01:36.350Z,70.77
2016-10-31T02:02:46.641Z,70.77
2016-10-31T02:03:56.922Z,70.77
2016-10-31T02:05:07.239Z,70.77
2016-10-31T02:06:17.208Z,70.87
2016-10-31T02:07:27.188Z,70.39
2016-10-31T02:08:37.466Z,70.77
2016-10-31T02:09:47.156Z,70.39
2016-10-31T02:10:57.126Z,70.77
2016-10-31T02:12:07.094Z,70.77
2016-10-31T02:13:17.375Z,70.39
2016-10-31T02:14:27.341Z,70.39
2016-10-31T02:15:37.323Z,70.39
2016-10-31T02:16:47.650Z,70.68
2016-10-31T02:17:57.627Z,70.39
2016-10-31T02:19:08.013Z,70.77
2016-10-31T02:20:17.990Z,70.77
2016-10-31T02:21:28.026Z,70.39
2016-10-31T02:22:38.007Z,70.77
2016-10-31T02:23:47.999Z,70.58
2016-10-31T02:24:57.991Z,70.58
2016-10-31T02:26:08.261Z,70.68
2016-10-31T02:27:18.244Z,70.68
2016-10-31T02:28:28.523Z,70.74
2016-10-31T02:29:38.808Z,70.68
2016-10-31T02:30:48.490Z,70.54
2016-10-31T02:31:58.141Z,70.83
2016-10-31T02:33:08.120Z,70.77
2016-10-31T02:34:17.785Z,70.74
2016-10-31T02:35:28.092Z,70.64
2016-10-31T02:36:38.068Z,70.74
2016-10-31T02:37:48.046Z,70.64
2016-10-31T02:38:58.317Z,70.74
2016-10-31T02:40:08.315Z,70.45
2016-10-31T02:41:18.296Z,70.45
2016-10-31T02:42:28.287Z,70.45
2016-10-31T02:43:38.564Z,70.74
2016-10-31T02:44:48.868Z,70.74
2016-10-31T02:45:58.838Z,70.64
2016-10-31T02:47:08.820Z,70.54
2016-10-31T02:48:19.127Z,70.54
2016-10-31T02:49:29.109Z,70.54
2016-10-31T02:50:39.075Z,70.54
2016-10-31T02:51:49.352Z,70.74
2016-10-31T02:52:59.634Z,70.64
2016-10-31T02:54:09.911Z,70.45
2016-10-31T02:55:19.888Z,70.74
2016-10-31T02:56:30.175Z,70.74
2016-10-31T02:57:40.146Z,70.64
2016-10-31T02:58:50.118Z,70.74
2016-10-31T02:59:59.805Z,70.54
2016-10-31T03:01:10.091Z,70.64
2016-10-31T03:32:32.813Z,68.85
2016-10-31T03:33:42.771Z,69.33
2016-10-31T03:34:52.734Z,70.56
2016-10-31T03:36:03.004Z,71.13
2016-10-31T03:37:12.983Z,71.41
2016-10-31T03:38:22.974Z,72.4
2016-10-31T03:39:32.950Z,72.59
2016-10-31T03:40:42.612Z,72.68
2016-10-31T03:41:52.282Z,72.4
2016-10-31T03:43:02.241Z,72.49
2016-10-31T03:44:12.203Z,72.63
2016-10-31T03:45:22.476Z,72.72
2016-10-31T03:46:32.498Z,72.91
2016-10-31T03:47:42.464Z,72.06
2016-10-31T03:48:52.431Z,72.34
2016-10-31T03:50:02.720Z,72.09
2016-10-31T03:51:13.003Z,72.09
2016-10-31T03:52:23.006Z,71.81
2016-10-31T03:53:33.308Z,71.62
2016-10-31T03:54:43.594Z,71.71
2016-10-31T03:55:53.880Z,71.81
2016-10-31T03:57:04.162Z,71.75
2016-10-31T03:58:14.433Z,71.46
2016-10-31T03:59:24.404Z,71.46
2016-10-31T04:00:34.716Z,71.46
2016-10-31T04:01:45.001Z,71.75
2016-10-31T04:02:55.276Z,70.99
2016-10-31T04:04:05.273Z,70.7
2016-10-31T04:05:15.244Z,70.79
2016-10-31T04:06:24.917Z,70.61
2016-10-31T04:07:35.242Z,70.99
2016-10-31T04:08:45.245Z,70.89
2016-10-31T04:09:55.537Z,70.89
2016-10-31T04:11:05.823Z,71.27
2016-10-31T04:12:16.112Z,71.18
2016-10-31T04:13:26.078Z,70.99
2016-10-31T04:14:36.044Z,70.7
2016-10-31T04:15:46.369Z,70.79
2016-10-31T04:16:56.031Z,70.79
2016-10-31T04:18:06.358Z,71.18
2016-10-31T04:19:16.641Z,70.89
2016-10-31T04:20:26.652Z,70.99
2016-10-31T04:21:36.643Z,70.79
2016-10-31T04:22:46.301Z,70.7
2016-10-31T04:23:55.964Z,71.02
2016-10-31T04:25:05.955Z,71.08
2016-10-31T04:26:16.241Z,71.08
2016-10-31T04:27:26.237Z,70.99
2016-10-31T04:28:36.218Z,70.93
2016-10-31T04:29:46.191Z,70.74
2016-10-31T04:30:56.470Z,70.79
2016-10-31T04:32:06.754Z,70.64
2016-10-31T04:33:17.071Z,70.51
2016-10-31T04:34:27.357Z,70.79
2016-10-31T04:35:37.030Z,70.74
2016-10-31T04:36:47.013Z,70.7
2016-10-31T04:37:57.339Z,70.45
2016-10-31T04:39:07.619Z,70.61
2016-10-31T04:40:17.286Z,70.42
2016-10-31T04:41:26.945Z,70.32
2016-10-31T04:42:37.219Z,70.45
2016-10-31T04:43:47.196Z,70.51
2016-10-31T04:44:57.175Z,70.51
2016-10-31T04:46:07.486Z,70.61
2016-10-31T04:47:17.778Z,70.51
2016-10-31T04:48:28.064Z,70.51
2016-10-31T04:49:38.031Z,70.51
2016-10-31T04:50:48.358Z,70.51
2016-10-31T04:51:58.338Z,70.79
2016-10-31T04:53:08.616Z,70.7
2016-10-31T04:54:18.267Z,70.61
2016-10-31T04:55:28.537Z,70.7
2016-10-31T04:56:38.839Z,70.7
2016-10-31T04:57:49.122Z,70.61
2016-10-31T04:58:59.089Z,70.7
2016-10-31T05:00:09.392Z,70.7
2016-10-31T05:01:19.418Z,70.7
2016-10-31T05:02:29.384Z,70.23
2016-10-31T05:03:39.367Z,70.7
2016-10-31T05:04:49.642Z,70.7
2016-10-31T05:05:59.660Z,70.7
2016-10-31T05:07:09.637Z,70.51
2016-10-31T05:08:19.916Z,70.7
2016-10-31T05:09:29.801Z,70.32
2016-10-31T05:10:40.095Z,70.32
2016-10-31T05:11:50.123Z,70.42
2016-10-31T05:13:00.393Z,70.7
2016-10-31T05:14:10.371Z,70.61
2016-10-31T05:15:20.351Z,70.51
2016-10-31T05:16:30.627Z,70.7
2016-10-31T05:17:40.897Z,70.42
2016-10-31T05:18:50.872Z,70.61
2016-10-31T05:20:01.181Z,70.79
2016-10-31T05:21:11.476Z,70.51
2016-10-31T05:22:21.459Z,70.7
2016-10-31T05:23:31.750Z,70.32
2016-10-31T05:24:41.721Z,70.51
2016-10-31T05:25:51.395Z,70.51
2016-10-31T05:27:01.676Z,70.51
2016-10-31T05:28:11.952Z,70.32
2016-10-31T05:29:21.967Z,70.7
2016-10-31T05:30:31.952Z,70.7
2016-10-31T05:31:41.944Z,70.32
2016-10-31T05:32:51.952Z,70.79
2016-10-31T05:34:02.230Z,70.61
2016-10-31T05:35:12.256Z,70.79
2016-10-31T05:36:22.529Z,70.79
2016-10-31T05:37:32.191Z,70.79
2016-10-31T05:38:42.162Z,70.7
2016-10-31T05:39:52.128Z,70.61
2016-10-31T05:41:02.461Z,70.23
2016-10-31T05:42:12.752Z,70.61
2016-10-31T05:43:23.064Z,70.23
2016-10-31T05:44:32.731Z,70.04
2016-10-31T05:45:42.711Z,70.04
2016-10-31T05:46:52.745Z,69.75
2016-10-31T05:48:03.031Z,69.94
2016-10-31T05:49:13.297Z,69.75
2016-10-31T05:50:23.273Z,69.75
2016-10-31T05:51:32.959Z,69.75
2016-10-31T05:52:43.226Z,70.04
2016-10-31T05:53:53.504Z,69.94
2016-10-31T05:55:03.771Z,69.94
2016-10-31T05:56:14.047Z,69.85
2016-10-31T05:57:24.029Z,70.04
2016-10-31T05:58:34.020Z,69.98
2016-10-31T05:59:44.296Z,69.98
2016-10-31T06:00:54.604Z,69.79
2016-10-31T06:02:04.874Z,70.26
2016-10-31T06:03:15.157Z,69.88
2016-10-31T06:04:25.125Z,69.88
2016-10-31T06:05:35.412Z,70.07
2016-10-31T06:06:45.697Z,69.88
2016-10-31T06:07:55.734Z,70.26
2016-10-31T06:09:06.006Z,69.6
2016-10-31T06:10:16.316Z,70.07
2016-10-31T06:11:25.979Z,69.79
2016-10-31T06:12:35.960Z,69.5
2016-10-31T06:13:46.230Z,69.69
2016-10-31T06:14:56.520Z,69.69
2016-10-31T06:16:06.796Z,69.69
2016-10-31T06:17:16.808Z,69.6
2016-10-31T06:18:26.480Z,69.41
2016-10-31T06:19:36.470Z,69.41
2016-10-31T06:20:46.443Z,69.35
2016-10-31T06:21:56.729Z,69.25
2016-10-31T06:23:07.010Z,69.25
2016-10-31T06:24:17.296Z,69.5
2016-10-31T06:25:27.573Z,69.54
2016-10-31T06:26:37.537Z,69.35
2016-10-31T06:27:47.838Z,69.44
2016-10-31T06:28:57.529Z,69.73
2016-10-31T06:30:07.511Z,69.73
2016-10-31T06:31:17.505Z,69.73
2016-10-31T06:32:27.795Z,69.73
2016-10-31T06:33:37.456Z,69.54
2016-10-31T06:34:47.752Z,69.54
2016-10-31T06:35:58.029Z,69.54
2016-10-31T06:37:08.324Z,69.92
2016-10-31T06:38:18.616Z,69.73
2016-10-31T06:39:28.917Z,69.44
2016-10-31T06:40:39.187Z,69.44
2016-10-31T06:41:49.483Z,69.44
2016-10-31T06:42:59.808Z,69.29
2016-10-31T06:44:10.079Z,69.38
2016-10-31T06:45:20.094Z,69.57
2016-10-31T06:46:30.385Z,69.38
2016-10-31T06:47:40.684Z,69.38
2016-10-31T06:48:50.691Z,69.29
2016-10-31T06:50:00.973Z,69.19
2016-10-31T06:51:10.957Z,69.29
2016-10-31T06:52:21.247Z,69.19
2016-10-31T06:53:31.224Z,69
2016-10-31T06:54:41.515Z,69.19
2016-10-31T06:55:51.490Z,69.1
2016-10-31T06:57:01.807Z,69.42
2016-10-31T06:58:12.094Z,69.51
2016-10-31T06:59:22.407Z,69.42
2016-10-31T07:00:32.672Z,68.94
2016-10-31T07:01:42.344Z,69.23
2016-10-31T07:02:52.336Z,69.04
2016-10-31T07:04:02.604Z,69.23
2016-10-31T07:05:12.914Z,69.6
2016-10-31T07:06:23.241Z,69.07
2016-10-31T07:07:33.211Z,69.17
2016-10-31T07:08:43.501Z,68.69
2016-10-31T07:09:53.795Z,69.45
2016-10-31T07:11:04.073Z,69.35
2016-10-31T07:12:14.072Z,69.07
2016-10-31T07:13:24.367Z,69.07
2016-10-31T07:14:34.658Z,69.26
2016-10-31T07:15:44.970Z,69.07
2016-10-31T07:16:55.247Z,69.26
2016-10-31T07:18:05.523Z,69.35
2016-10-31T07:19:15.806Z,69.07
2016-10-31T07:20:26.107Z,69.35
2016-10-31T07:21:36.392Z,69.17
2016-10-31T07:22:46.669Z,69.17
2016-10-31T07:23:56.962Z,69.07
2016-10-31T07:25:07.250Z,69.17
2016-10-31T07:26:17.555Z,69.01
2016-10-31T07:27:27.859Z,69.1
2016-10-31T07:28:38.152Z,69.2
2016-10-31T07:29:48.424Z,69.1
2016-10-31T07:30:58.416Z,69.2
2016-10-31T07:32:08.392Z,69.2
2016-10-31T07:33:18.389Z,69.1
2016-10-31T07:34:28.696Z,69.29
2016-10-31T07:35:39.007Z,69.29
2016-10-31T07:36:49.305Z,69.2
2016-10-31T07:37:59.581Z,69.48
2016-10-31T07:39:09.868Z,69.14
2016-10-31T07:40:19.866Z,69.14
2016-10-31T07:41:29.847Z,69.33
2016-10-31T07:42:39.814Z,69.43
2016-10-31T07:43:49.485Z,69.33
2016-10-31T07:44:59.787Z,68.95
2016-10-31T07:46:09.777Z,69.23
2016-10-31T07:47:19.446Z,68.95
2016-10-31T07:48:29.725Z,69.33
2016-10-31T07:49:40.013Z,68.66
2016-10-31T07:50:49.985Z,69.14
2016-10-31T07:52:00.296Z,69.14
2016-10-31T07:53:10.277Z,69.14
2016-10-31T07:54:20.604Z,68.57
2016-10-31T07:55:30.892Z,68.6
2016-10-31T07:56:41.221Z,68.88
2016-10-31T07:57:51.235Z,68.79
2016-10-31T07:59:01.518Z,68.98
2016-10-31T08:00:11.489Z,69.27
2016-10-31T08:01:21.468Z,69.17
2016-10-31T08:02:31.443Z,68.88
2016-10-31T08:03:41.468Z,68.98
2016-10-31T08:04:51.765Z,68.98
2016-10-31T08:06:02.202Z,68.88
2016-10-31T08:07:12.213Z,68.98
2016-10-31T08:08:22.496Z,68.82
2016-10-31T08:09:32.807Z,68.82
2016-10-31T08:10:42.778Z,69.02
2016-10-31T08:11:52.745Z,69.02
2016-10-31T08:13:03.032Z,69.02
2016-10-31T08:14:12.698Z,69.02
2016-10-31T08:15:22.985Z,68.92
2016-10-31T08:16:33.276Z,69.02
2016-10-31T08:17:43.589Z,68.82
2016-10-31T08:18:53.876Z,69.59
2016-10-31T08:20:03.853Z,68.63
2016-10-31T08:21:13.845Z,69.31
2016-10-31T08:22:24.134Z,69.31
2016-10-31T08:23:34.441Z,68.92
2016-10-31T08:24:44.423Z,68.96
2016-10-31T08:25:54.725Z,68.86
2016-10-31T08:27:05.002Z,68.96
2016-10-31T08:28:15.273Z,69.05
2016-10-31T08:29:25.550Z,69.24
2016-10-31T08:30:35.213Z,69.05
2016-10-31T08:31:45.495Z,69.37
2016-10-31T08:32:55.473Z,69.47
2016-10-31T08:34:05.746Z,68.61
2016-10-31T08:35:15.725Z,68.51
2016-10-31T08:36:26.068Z,68.7
2016-10-31T08:37:36.042Z,69.47
2016-10-31T08:38:46.040Z,69.09
2016-10-31T08:39:56.323Z,69.09
2016-10-31T08:41:06.299Z,68.99
2016-10-31T08:42:16.585Z,69.18
2016-10-31T08:43:26.570Z,68.99
2016-10-31T08:44:36.227Z,69.37
2016-10-31T08:45:46.524Z,68.51
2016-10-31T08:46:56.508Z,69.12
2016-10-31T08:48:06.807Z,68.93
2016-10-31T08:49:17.109Z,69.02
2016-10-31T08:50:27.265Z,69.12
2016-10-31T08:51:37.359Z,69.12
2016-10-31T08:52:47.653Z,69.41
2016-10-31T08:53:57.040Z,69.12
2016-10-31T08:55:07.353Z,69.12
2016-10-31T08:56:17.659Z,68.74
2016-10-31T08:57:27.661Z,68.64
2016-10-31T08:58:37.944Z,69.12
2016-10-31T08:59:47.940Z,69.12
2016-10-31T09:00:58.248Z,69.31
2016-10-31T09:02:08.542Z,69.12
2016-10-31T09:03:18.839Z,69.12
2016-10-31T09:04:29.137Z,69.12
2016-10-31T09:05:39.132Z,69.02
2016-10-31T09:06:48.806Z,69.31
2016-10-31T09:07:58.802Z,69.15
2016-10-31T09:09:08.784Z,69.15
2016-10-31T09:10:18.784Z,68.77
2016-10-31T09:11:29.115Z,69.06
2016-10-31T09:12:39.419Z,69.35
2016-10-31T09:13:49.707Z,69.44
2016-10-31T09:14:59.702Z,68.58
2016-10-31T09:16:09.993Z,68.96
2016-10-31T09:17:20.265Z,68.77
2016-10-31T09:18:30.599Z,68.87
2016-10-31T09:19:40.895Z,68.8
2016-10-31T09:20:51.210Z,68.62
2016-10-31T09:22:01.519Z,68.71
2016-10-31T09:23:11.855Z,68.8
2016-10-31T09:24:21.528Z,68.8
2016-10-31T09:25:31.856Z,68.9
2016-10-31T09:26:42.167Z,68.9
2016-10-31T09:27:52.470Z,68.42
2016-10-31T09:29:02.766Z,68.8
2016-10-31T09:30:12.752Z,68.8
2016-10-31T09:31:23.038Z,68.42
2016-10-31T09:32:33.342Z,68.52
2016-10-31T09:33:43.627Z,68.33
2016-10-31T09:34:53.928Z,68.71
2016-10-31T09:36:04.256Z,68.65
2016-10-31T09:37:14.561Z,68.46
2016-10-31T09:38:24.863Z,68.55
2016-10-31T09:39:34.225Z,68.55
2016-10-31T09:40:44.529Z,68.55
2016-10-31T09:41:54.809Z,68.55
2016-10-31T09:43:05.124Z,68.27
2016-10-31T09:44:15.101Z,68.46
2016-10-31T09:45:25.387Z,68.36
2016-10-31T09:46:35.728Z,68.74
2016-10-31T09:47:45.716Z,68.74
2016-10-31T09:48:55.683Z,68.74
2016-10-31T09:50:05.656Z,68.84
2016-10-31T09:51:15.950Z,68.65
2016-10-31T09:52:26.227Z,68.74
2016-10-31T09:53:36.224Z,68.74
2016-10-31T09:54:46.215Z,68.27
2016-10-31T09:55:56.517Z,68.36
2016-10-31T09:57:06.183Z,68.55
2016-10-31T09:58:16.172Z,68.55
2016-10-31T09:59:26.456Z,68.68
2016-10-31T10:00:36.760Z,68.27
2016-10-31T10:01:47.060Z,68.46
2016-10-31T10:02:57.052Z,68.68
2016-10-31T10:04:07.350Z,68.87
2016-10-31T10:05:17.027Z,68.4
2016-10-31T10:06:26.391Z,68.4
2016-10-31T10:07:36.688Z,68.87
2016-10-31T10:08:46.656Z,68.49
2016-10-31T10:09:56.962Z,68.68
2016-10-31T10:11:07.263Z,68.4
2016-10-31T10:12:17.263Z,68.59
2016-10-31T10:13:27.267Z,68.78
2016-10-31T10:14:37.256Z,68.49
2016-10-31T10:15:47.555Z,68.49
2016-10-31T10:16:57.853Z,68.59
2016-10-31T10:18:08.138Z,68.78
2016-10-31T10:19:18.471Z,68.78
2016-10-31T10:20:28.765Z,68.87
2016-10-31T10:21:38.745Z,68.4
2016-10-31T10:22:49.023Z,68.21
2016-10-31T10:23:59.325Z,68.21
2016-10-31T10:25:09.322Z,68.68
2016-10-31T10:26:19.617Z,69.07
2016-10-31T10:27:29.915Z,68.87
2016-10-31T10:28:40.212Z,68.68
2016-10-31T10:29:50.519Z,68.52
2016-10-31T10:31:00.806Z,68.87
2016-10-31T10:32:11.095Z,68.81
2016-10-31T10:33:21.113Z,68.91
2016-10-31T10:34:31.395Z,68.81
2016-10-31T10:35:41.410Z,68.59
2016-10-31T10:36:51.083Z,68.59
2016-10-31T10:38:01.395Z,68.68
2016-10-31T10:39:11.693Z,68.81
2016-10-31T10:40:21.982Z,68.91
2016-10-31T10:41:31.955Z,68.72
2016-10-31T10:42:42.241Z,68.62
2016-10-31T10:43:52.534Z,68.43
2016-10-31T10:45:02.501Z,68.24
2016-10-31T10:46:12.497Z,68.91
2016-10-31T10:47:22.515Z,69.39
2016-10-31T10:48:32.545Z,68.43
2016-10-31T10:49:42.568Z,68.43
2016-10-31T10:50:52.605Z,68.81
2016-10-31T10:52:02.285Z,68.62
2016-10-31T10:53:12.637Z,68.81
2016-10-31T10:54:22.948Z,68.52
2016-10-31T10:55:33.246Z,68.24
2016-10-31T10:56:43.543Z,68.14
2016-10-31T10:57:53.850Z,68.46
2016-10-31T10:59:04.166Z,68.37
2016-10-31T11:00:14.466Z,68.37
2016-10-31T11:01:24.813Z,68.37
2016-10-31T11:02:34.806Z,68.37
2016-10-31T11:03:44.797Z,68.08
2016-10-31T11:04:55.101Z,68.08
2016-10-31T11:06:05.411Z,67.89
2016-10-31T11:07:15.701Z,68.08
2016-10-31T11:08:25.989Z,68.08
2016-10-31T11:09:35.961Z,67.73
2016-10-31T11:10:46.262Z,67.83
2016-10-31T11:11:56.560Z,67.73
2016-10-31T11:13:06.556Z,67.83
2016-10-31T11:14:16.843Z,67.83
2016-10-31T11:15:27.121Z,67.92
2016-10-31T11:16:37.413Z,67.83
2016-10-31T11:17:47.710Z,67.83
2016-10-31T11:18:58.060Z,67.92
2016-10-31T11:20:08.049Z,67.83
2016-10-31T11:21:18.383Z,67.92
2016-10-31T11:22:28.666Z,68.02
2016-10-31T11:23:38.972Z,68.12
2016-10-31T11:24:49.275Z,67.76
2016-10-31T11:25:59.276Z,67.86
2016-10-31T11:27:09.568Z,67.76
2016-10-31T11:28:19.562Z,68.05
2016-10-31T11:29:29.862Z,67.96
2016-10-31T11:30:40.172Z,67.96
2016-10-31T11:31:50.160Z,67.86
2016-10-31T11:32:59.840Z,68.05
2016-10-31T11:34:09.878Z,68.24
2016-10-31T11:35:20.229Z,68.15
2016-10-31T11:36:30.536Z,68.05
2016-10-31T11:37:40.514Z,68.08
2016-10-31T11:38:50.495Z,68.05
2016-10-31T11:40:00.477Z,68.15
2016-10-31T11:41:10.798Z,68.18
2016-10-31T11:42:21.099Z,68.08
2016-10-31T11:43:31.421Z,68.63
2016-10-31T11:44:41.722Z,68.66
2016-10-31T11:45:52.026Z,68.44
2016-10-31T11:47:02.321Z,68.37
2016-10-31T11:48:12.011Z,68.34
2016-10-31T11:49:22.722Z,68.37
2016-10-31T11:50:32.766Z,67.9
2016-10-31T11:51:43.103Z,68.37
2016-10-31T11:52:53.462Z,67.99
2016-10-31T11:54:03.532Z,67.8
2016-10-31T11:55:13.890Z,67.9
2016-10-31T11:56:23.933Z,67.9
2016-10-31T11:57:34.280Z,67.9
2016-10-31T11:58:44.631Z,67.9
2016-10-31T11:59:55.027Z,68.02
2016-10-31T12:01:05.118Z,68.02
2016-10-31T12:02:15.197Z,68.02
2016-10-31T12:03:25.549Z,67.83
2016-10-31T12:04:35.915Z,68.02
2016-10-31T12:05:46.279Z,67.99
2016-10-31T12:06:56.659Z,68.31
2016-10-31T12:08:07.082Z,68.12
2016-10-31T12:09:17.094Z,67.74
2016-10-31T12:10:27.476Z,68.02
2016-10-31T12:11:37.850Z,68.7
2016-10-31T12:12:48.200Z,67.99
2016-10-31T12:13:58.554Z,68.28
2016-10-31T12:15:08.614Z,68.47
2016-10-31T12:16:19.017Z,67.99
2016-10-31T12:17:29.351Z,68.18
2016-10-31T12:18:39.730Z,68.18
2016-10-31T12:19:50.109Z,67.99
2016-10-31T12:21:00.452Z,68.18
2016-10-31T12:22:10.794Z,68.28
2016-10-31T12:23:21.139Z,67.8
2016-10-31T12:24:31.490Z,68.18
2016-10-31T12:25:41.850Z,68.18
2016-10-31T12:26:52.191Z,67.7
2016-10-31T12:28:02.604Z,67.83
2016-10-31T12:29:13.001Z,67.45
2016-10-31T12:30:23.035Z,67.74
2016-10-31T12:31:33.059Z,68.02
2016-10-31T12:32:43.438Z,67.74
2016-10-31T12:33:53.772Z,67.83
2016-10-31T12:35:04.087Z,67.74
2016-10-31T12:36:13.783Z,68.02
2016-10-31T12:37:23.833Z,68.31
2016-10-31T12:38:33.857Z,67.83
2016-10-31T12:39:44.259Z,67.93
2016-10-31T12:40:54.565Z,67.93
2016-10-31T12:42:04.942Z,68.31
2016-10-31T12:43:15.304Z,68.02
2016-10-31T12:44:25.632Z,68.7
2016-10-31T12:45:35.955Z,68.41
2016-10-31T12:46:46.367Z,68.28
2016-10-31T12:47:56.416Z,68.47
2016-10-31T12:49:06.731Z,69.05
2016-10-31T12:50:17.079Z,69.05
2016-10-31T12:51:27.385Z,68.57
2016-10-31T12:52:37.699Z,68.47
2016-10-31T12:53:48.029Z,68.47
2016-10-31T12:54:58.373Z,68.37
2016-10-31T12:56:08.380Z,68.57
2016-10-31T12:57:18.383Z,68.37
2016-10-31T12:58:28.399Z,68.37
2016-10-31T12:59:38.764Z,68.47
2016-10-31T13:00:48.756Z,68.37
2016-10-31T13:01:58.431Z,68.37
2016-10-31T13:03:08.482Z,68.47
2016-10-31T13:04:18.476Z,68.57
2016-10-31T13:05:28.203Z,68.57
2016-10-31T13:06:38.493Z,68.47
2016-10-31T13:07:48.779Z,68.47
2016-10-31T13:08:58.758Z,68.47
2016-10-31T13:10:09.067Z,68.37
2016-10-31T13:11:19.621Z,68.37
2016-10-31T13:12:29.638Z,68.57
2016-10-31T13:13:39.638Z,68.66
2016-10-31T13:14:49.645Z,68.76
2016-10-31T13:16:00.218Z,68.66
2016-10-31T13:17:10.513Z,68.85
2016-10-31T13:18:20.519Z,68.85
2016-10-31T13:19:30.817Z,68.76
2016-10-31T13:20:41.130Z,68.37
2016-10-31T13:21:51.127Z,68.95
2016-10-31T13:23:01.446Z,69.01
2016-10-31T13:24:11.440Z,69.2
2016-10-31T13:25:21.441Z,69.59
2016-10-31T13:26:31.743Z,69.3
2016-10-31T13:27:42.055Z,69.49
2016-10-31T13:28:52.403Z,69.59
2016-10-31T13:30:02.712Z,69.2
2016-10-31T13:31:12.726Z,69.59
2016-10-31T13:32:23.024Z,69.4
2016-10-31T13:33:33.033Z,69.49
2016-10-31T13:34:43.033Z,69.49
2016-10-31T13:35:53.045Z,69.59
2016-10-31T13:37:03.577Z,69.49
2016-10-31T13:38:13.886Z,69.2
2016-10-31T13:39:24.204Z,69.49
2016-10-31T13:40:34.199Z,69.3
2016-10-31T13:41:44.491Z,69.2
2016-10-31T13:42:54.801Z,69.59
2016-10-31T13:44:05.123Z,69.59
2016-10-31T13:45:15.446Z,69.49
2016-10-31T13:46:25.755Z,69.2
2016-10-31T13:47:36.074Z,69.4
2016-10-31T13:48:46.073Z,69.4
2016-10-31T13:49:55.765Z,69.2
2016-10-31T13:51:06.069Z,69.4
2016-10-31T13:52:16.415Z,69.4
2016-10-31T13:53:26.714Z,69.4
2016-10-31T13:54:36.711Z,69.3
2016-10-31T13:55:46.717Z,69.4
2016-10-31T13:56:56.430Z,69.17
2016-10-31T13:58:06.432Z,69.4
2016-10-31T13:59:16.733Z,69.26
2016-10-31T14:00:27.022Z,69.01
2016-10-31T14:01:37.354Z,69.56
2016-10-31T14:02:47.359Z,69.56
2016-10-31T14:03:57.377Z,69.07
2016-10-31T14:05:07.709Z,69.46
2016-10-31T14:06:18.031Z,69.65
2016-10-31T14:07:28.363Z,69.65
2016-10-31T14:08:38.716Z,69.74
2016-10-31T14:09:49.066Z,69.84
2016-10-31T14:10:59.382Z,69.65
2016-10-31T14:12:09.714Z,69.74
2016-10-31T14:13:20.025Z,70.03
2016-10-31T14:14:30.342Z,69.65
2016-10-31T14:15:40.642Z,70.03
2016-10-31T14:16:50.643Z,69.65
2016-10-31T14:18:00.971Z,69.65
2016-10-31T14:19:11.269Z,69.65
2016-10-31T14:20:21.569Z,69.84
2016-10-31T14:21:31.866Z,69.52
2016-10-31T14:22:42.173Z,69.9
2016-10-31T14:23:52.177Z,69.42
2016-10-31T14:25:02.476Z,70
2016-10-31T14:26:12.462Z,70
2016-10-31T14:27:22.794Z,69.81
2016-10-31T14:28:33.093Z,69.9
2016-10-31T14:29:42.779Z,69.9
2016-10-31T14:30:52.476Z,70.29
2016-10-31T14:32:02.461Z,70.29
2016-10-31T14:33:12.136Z,70.09
2016-10-31T14:34:22.139Z,70.25
2016-10-31T14:35:32.139Z,70.06
2016-10-31T14:36:42.433Z,69.87
2016-10-31T14:37:52.755Z,69.77
2016-10-31T14:39:02.761Z,69.87
2016-10-31T14:40:13.055Z,70.15
2016-10-31T14:41:23.358Z,70.25
2016-10-31T14:42:33.350Z,69.87
2016-10-31T14:43:43.636Z,70.15
2016-10-31T14:44:53.690Z,70.21
2016-10-31T14:46:03.987Z,70.7
2016-10-31T14:47:14.286Z,70.31
2016-10-31T14:48:23.971Z,70.5
2016-10-31T14:49:34.301Z,70.79
2016-10-31T14:50:43.991Z,70.95
2016-10-31T14:51:53.985Z,70.5
2016-10-31T14:53:04.308Z,70.5
2016-10-31T14:54:14.606Z,70.5
2016-10-31T14:55:24.910Z,70.47
2016-10-31T14:56:34.898Z,70.28
2016-10-31T14:57:45.202Z,70.37
2016-10-31T14:58:55.514Z,70.56
2016-10-31T15:00:05.822Z,70.47
2016-10-31T15:01:16.218Z,71.14
2016-10-31T15:02:26.554Z,71.23
2016-10-31T15:03:36.537Z,71.23
2016-10-31T15:04:46.617Z,71.11
2016-10-31T15:05:56.617Z,70.91
2016-10-31T15:07:06.612Z,71.01
2016-10-31T15:08:16.934Z,71.11
2016-10-31T15:09:27.250Z,71.2
2016-10-31T15:10:37.233Z,71.01
2016-10-31T15:11:47.532Z,70.91
2016-10-31T15:12:57.872Z,71.2
2016-10-31T15:14:08.225Z,71.2
2016-10-31T15:15:18.533Z,70.81
2016-10-31T15:16:28.857Z,71.16
2016-10-31T15:17:38.868Z,71.26
2016-10-31T15:18:49.169Z,70.97
2016-10-31T15:19:59.473Z,70.97
2016-10-31T15:21:09.481Z,71.16
2016-10-31T15:22:19.510Z,71.07
2016-10-31T15:23:29.483Z,71.26
2016-10-31T15:24:39.804Z,70.97
2016-10-31T15:25:50.105Z,70.87
2016-10-31T15:26:59.787Z,70.97
2016-10-31T15:28:09.771Z,70.97
2016-10-31T15:29:19.759Z,71.03
2016-10-31T15:30:29.749Z,70.75
2016-10-31T15:31:40.055Z,71.03
2016-10-31T15:32:50.376Z,71.03
2016-10-31T15:34:00.703Z,70.94
2016-10-31T15:35:11.003Z,71.13
2016-10-31T15:36:21.037Z,70.94